createdAt,value
2022-11-06T00:00:44.325Z,101453.19
2022-11-06T00:03:14.608Z,101452.06
2022-11-06T00:06:04.031Z,101461.09
2022-11-06T00:08:38.006Z,101471.13
2022-11-06T00:11:17.307Z,101464.94
2022-11-06T00:13:49.944Z,101467.44
2022-11-06T00:16:20.590Z,101459.44
2022-11-06T00:18:51.839Z,101467.97
2022-11-06T00:21:30.776Z,101465.97
2022-11-06T00:24:02.734Z,101473.34
2022-11-06T00:26:33.910Z,101477.75
2022-11-06T00:29:04.542Z,101480.72
2022-11-06T00:31:40.643Z,101484.00
2022-11-06T00:34:13.598Z,101484.09
2022-11-06T00:36:44.491Z,101488.63
2022-11-06T00:39:15.010Z,101496.63
2022-11-06T00:41:45.382Z,101495.44
2022-11-06T00:45:36.315Z,101499.56
2022-11-06T00:48:07.328Z,101497.69
2022-11-06T00:50:37.584Z,101506.25
2022-11-06T00:53:07.828Z,101508.56
2022-11-06T00:55:38.517Z,101509.69
2022-11-06T00:58:10.154Z,101510.66
2022-11-06T01:00:40.616Z,101523.97
2022-11-06T01:03:11.426Z,101522.38
2022-11-06T01:05:41.686Z,101522.34
2022-11-06T01:08:12.233Z,101525.31
2022-11-06T01:10:42.539Z,101531.66
2022-11-06T01:13:13.006Z,101541.28
2022-11-06T01:15:43.439Z,101547.84
2022-11-06T01:18:14.043Z,101543.69
2022-11-06T01:20:44.632Z,101555.00
2022-11-06T01:23:14.892Z,101546.78
2022-11-06T01:25:45.352Z,101553.94
2022-11-06T01:28:15.764Z,101549.75
2022-11-06T01:30:46.101Z,101555.84
2022-11-06T01:33:16.334Z,101552.59
2022-11-06T01:35:51.596Z,101551.19
2022-11-06T01:38:21.929Z,101552.28
2022-11-06T01:40:53.427Z,101553.09
2022-11-06T01:43:25.364Z,101556.28
2022-11-06T01:45:58.155Z,101552.69
2022-11-06T01:48:30.543Z,101554.84
2022-11-06T01:51:02.271Z,101563.06
2022-11-06T01:53:33.755Z,101559.47
2022-11-06T01:56:07.366Z,101559.78
2022-11-06T01:58:39.630Z,101561.34
2022-11-06T02:01:13.904Z,101562.97
2022-11-06T02:03:51.242Z,101568.44
2022-11-06T02:06:21.823Z,101569.88
2022-11-06T02:08:52.327Z,101567.91
2022-11-06T02:11:23.060Z,101566.97
2022-11-06T02:14:08.084Z,101566.25
2022-11-06T02:16:47.176Z,101576.66
2022-11-06T02:19:23.037Z,101578.38
2022-11-06T02:22:28.966Z,101577.22
2022-11-06T02:25:08.699Z,101577.63
2022-11-06T02:27:40.628Z,101577.88
2022-11-06T02:30:14.200Z,101582.00
2022-11-06T02:32:50.483Z,101580.03
2022-11-06T02:35:23.473Z,101570.72
2022-11-06T02:37:59.402Z,101567.25
2022-11-06T02:40:35.737Z,101569.50
2022-11-06T02:43:11.404Z,101566.22
2022-11-06T02:45:54.666Z,101556.56
2022-11-06T02:48:34.103Z,101566.50
2022-11-06T02:51:08.724Z,101565.56
2022-11-06T02:53:43.628Z,101565.94
2022-11-06T02:56:25.083Z,101561.09
2022-11-06T02:58:57.980Z,101554.72
2022-11-06T03:01:31.596Z,101561.59
2022-11-06T03:04:08.273Z,101553.13
2022-11-06T03:06:49.280Z,101562.16
2022-11-06T03:09:24.701Z,101553.13
2022-11-06T03:12:18.528Z,101555.28
2022-11-06T03:15:06.011Z,101552.75
2022-11-06T03:17:52.001Z,101544.38
2022-11-06T03:20:48.434Z,101535.78
2022-11-06T03:23:26.514Z,101537.19
2022-11-06T03:26:25.391Z,101539.06
2022-11-06T03:29:06.276Z,101537.69
2022-11-06T03:31:42.055Z,101531.59
2022-11-06T03:34:20.470Z,101534.91
2022-11-06T03:36:57.005Z,101530.28
2022-11-06T03:39:35.646Z,101530.50
2022-11-06T03:42:19.630Z,101520.53
2022-11-06T03:44:56.332Z,101522.16
2022-11-06T03:47:39.217Z,101514.41
2022-11-06T03:50:18.421Z,101504.19
2022-11-06T03:53:13.353Z,101513.22
2022-11-06T03:55:55.923Z,101501.38
2022-11-06T03:58:34.271Z,101494.97
2022-11-06T04:01:09.813Z,101487.28
2022-11-06T04:03:46.437Z,101482.50
2022-11-06T04:06:35.155Z,101485.25
2022-11-06T04:09:26.977Z,101484.69
2022-11-06T04:12:18.291Z,101470.88
2022-11-06T04:14:53.484Z,101470.81
2022-11-06T04:17:27.304Z,101464.47
2022-11-06T04:20:04.933Z,101461.00
2022-11-06T04:22:41.184Z,101457.72
2022-11-06T04:25:35.737Z,101450.25
2022-11-06T04:28:27.606Z,101438.03
2022-11-06T04:31:21.982Z,101440.78
2022-11-06T04:37:09.152Z,101436.09
2022-11-06T04:40:03.135Z,101429.97
2022-11-06T04:42:50.777Z,101428.00
2022-11-06T04:45:32.230Z,101420.56
2022-11-06T04:48:02.575Z,101409.63
2022-11-06T04:50:38.709Z,101407.69
2022-11-06T04:53:11.537Z,101402.97
2022-11-06T04:55:49.713Z,101395.22
2022-11-06T04:58:20.083Z,101395.75
2022-11-06T05:00:53.131Z,101382.47
2022-11-06T05:03:23.795Z,101382.34
2022-11-06T05:05:54.866Z,101379.59
2022-11-06T05:08:26.268Z,101378.72
2022-11-06T05:10:56.924Z,101370.84
2022-11-06T05:13:27.085Z,101364.09
2022-11-06T05:16:02.744Z,101364.59
2022-11-06T05:18:33.122Z,101358.69
2022-11-06T05:21:23.584Z,101359.41
2022-11-06T05:23:53.734Z,101348.34
2022-11-06T05:26:23.950Z,101340.81
2022-11-06T05:28:54.274Z,101340.41
2022-11-06T05:31:24.699Z,101330.78
2022-11-06T05:33:54.760Z,101320.88
2022-11-06T05:36:26.324Z,101324.56
2022-11-06T05:38:56.368Z,101322.09
2022-11-06T05:41:26.409Z,101317.06
2022-11-06T05:43:57.118Z,101310.66
2022-11-06T05:46:48.702Z,101309.81
2022-11-06T05:49:18.825Z,101298.09
2022-11-06T05:51:51.351Z,101295.94
2022-11-06T05:54:21.542Z,101289.94
2022-11-06T05:56:52.691Z,101287.56
2022-11-06T05:59:22.889Z,101282.84
2022-11-06T06:01:53.884Z,101277.63
2022-11-06T06:04:24.254Z,101271.22
2022-11-06T06:06:54.741Z,101266.78
2022-11-06T06:09:25.039Z,101259.63
2022-11-06T06:11:56.715Z,101262.94
2022-11-06T06:14:26.964Z,101256.28
2022-11-06T06:16:57.231Z,101255.75
2022-11-06T06:19:27.426Z,101247.47
2022-11-06T06:21:57.602Z,101248.38
2022-11-06T06:24:27.760Z,101233.63
2022-11-06T06:26:58.051Z,101233.03
2022-11-06T06:29:28.306Z,101219.72
2022-11-06T06:31:58.656Z,101217.16
2022-11-06T06:34:29.304Z,101207.38
2022-11-06T06:36:59.622Z,101210.13
2022-11-06T06:39:29.840Z,101202.34
2022-11-06T06:42:00.999Z,101200.72
2022-11-06T06:44:31.241Z,101190.47
2022-11-06T06:47:01.448Z,101191.09
2022-11-06T06:49:31.692Z,101186.06
2022-11-06T06:52:01.851Z,101177.50
2022-11-06T06:54:35.083Z,101183.53
2022-11-06T06:57:06.933Z,101173.91
2022-11-06T06:59:37.647Z,101180.75
2022-11-06T07:02:08.028Z,101170.00
2022-11-06T07:04:38.310Z,101166.97
2022-11-06T07:07:08.565Z,101147.19
2022-11-06T07:09:39.272Z,101148.63
2022-11-06T07:12:09.663Z,101149.56
2022-11-06T07:14:39.882Z,101147.38
2022-11-06T07:17:09.986Z,101143.47
2022-11-06T07:19:40.469Z,101134.50
2022-11-06T07:22:11.378Z,101127.66
2022-11-06T07:24:41.942Z,101130.72
2022-11-06T07:27:13.043Z,101125.56
2022-11-06T07:29:42.952Z,101122.88
2022-11-06T07:32:13.099Z,101127.53
2022-11-06T07:34:43.316Z,101123.00
2022-11-06T07:37:13.580Z,101119.13
2022-11-06T07:39:44.261Z,101115.09
2022-11-06T07:42:14.874Z,101117.03
2022-11-06T07:44:59.102Z,101111.81
2022-11-06T07:47:30.397Z,101109.88
2022-11-06T07:50:00.411Z,101105.81
2022-11-06T07:52:30.842Z,101107.41
2022-11-06T07:55:01.964Z,101104.63
2022-11-06T07:57:32.547Z,101101.22
2022-11-06T08:00:03.333Z,101104.66
2022-11-06T08:02:43.146Z,101096.88
2022-11-06T08:05:13.884Z,101095.06
2022-11-06T08:07:44.638Z,101089.03
2022-11-06T08:10:15.018Z,101091.00
2022-11-06T08:12:45.072Z,101093.88
2022-11-06T08:15:15.107Z,101085.31
2022-11-06T08:17:45.442Z,101084.97
2022-11-06T08:20:15.635Z,101081.53
2022-11-06T08:22:46.254Z,101083.16
2022-11-06T08:25:16.319Z,101084.75
2022-11-06T08:27:46.609Z,101090.56
2022-11-06T08:30:16.886Z,101083.06
2022-11-06T08:32:47.853Z,101084.69
2022-11-06T08:35:18.599Z,101091.34
2022-11-06T08:37:48.955Z,101090.22
2022-11-06T08:40:19.447Z,101082.78
2022-11-06T08:42:49.689Z,101089.88
2022-11-06T08:45:21.268Z,101078.00
2022-11-06T08:47:52.030Z,101084.84
2022-11-06T08:50:22.443Z,101085.03
2022-11-06T08:52:52.618Z,101084.34
2022-11-06T08:55:22.703Z,101081.75
2022-11-06T08:57:52.755Z,101082.78
2022-11-06T09:00:23.392Z,101077.25
2022-11-06T09:02:53.888Z,101078.66
2022-11-06T09:05:24.118Z,101079.69
2022-11-06T09:07:54.138Z,101083.22
2022-11-06T09:10:24.423Z,101084.19
2022-11-06T09:12:54.904Z,101079.06
2022-11-06T09:15:25.206Z,101081.09
2022-11-06T09:17:55.785Z,101080.56
2022-11-06T09:20:27.661Z,101076.06
2022-11-06T09:23:02.240Z,101071.00
2022-11-06T09:25:33.117Z,101076.19
2022-11-06T09:28:03.556Z,101075.19
2022-11-06T09:30:34.915Z,101081.88
2022-11-06T09:33:09.299Z,101089.63
2022-11-06T09:35:44.185Z,101084.47
2022-11-06T09:38:17.567Z,101088.97
2022-11-06T09:41:00.189Z,101091.00
2022-11-06T09:44:04.143Z,101088.34
2022-11-06T09:46:49.622Z,101095.78
2022-11-06T09:49:29.033Z,101095.16
2022-11-06T09:52:14.533Z,101097.53
2022-11-06T09:55:02.825Z,101100.25
2022-11-06T09:57:39.388Z,101102.06
2022-11-06T10:00:13.559Z,101098.97
2022-11-06T10:02:54.227Z,101102.56
2022-11-06T10:05:35.853Z,101118.28
2022-11-06T10:08:10.285Z,101111.75
2022-11-06T10:11:17.501Z,101115.34
2022-11-06T10:14:04.348Z,101121.38
2022-11-06T10:16:46.034Z,101131.09
2022-11-06T10:19:28.611Z,101121.56
2022-11-06T10:22:01.463Z,101131.31
2022-11-06T10:24:51.915Z,101135.19
2022-11-06T10:27:30.439Z,101141.84
2022-11-06T10:30:07.312Z,101139.44
2022-11-06T10:32:47.227Z,101136.94
2022-11-06T10:35:30.486Z,101147.88
2022-11-06T10:38:25.746Z,101144.72
2022-11-06T10:40:58.702Z,101152.38
2022-11-06T10:44:01.140Z,101146.06
2022-11-06T10:46:55.964Z,101159.41
2022-11-06T10:49:41.008Z,101164.13
2022-11-06T10:52:11.402Z,101163.91
2022-11-06T10:55:32.389Z,101167.78
2022-11-06T10:58:08.534Z,101171.69
2022-11-06T11:00:39.345Z,101172.34
2022-11-06T11:03:35.981Z,101185.00
2022-11-06T11:06:07.128Z,101182.25
2022-11-06T11:08:49.390Z,101182.88
2022-11-06T11:11:30.127Z,101190.53
2022-11-06T11:14:03.037Z,101188.91
2022-11-06T11:16:37.914Z,101194.09
2022-11-06T11:19:27.714Z,101189.41
2022-11-06T11:22:00.438Z,101210.97
2022-11-06T11:24:31.603Z,101199.94
2022-11-06T11:27:10.239Z,101208.22
2022-11-06T11:29:53.164Z,101213.22
2022-11-06T11:32:24.461Z,101213.75
2022-11-06T11:34:57.145Z,101216.50
2022-11-06T11:37:33.842Z,101217.91
2022-11-06T11:40:23.620Z,101219.56
2022-11-06T11:42:53.869Z,101216.25
2022-11-06T11:45:24.750Z,101220.03
2022-11-06T11:47:55.079Z,101223.78
2022-11-06T11:50:28.705Z,101224.72
2022-11-06T11:53:21.749Z,101226.53
2022-11-06T11:55:55.329Z,101228.69
2022-11-06T11:58:31.557Z,101233.28
2022-11-06T12:01:09.702Z,101234.03
2022-11-06T12:03:47.462Z,101242.59
2022-11-06T12:06:20.794Z,101244.34
2022-11-06T12:08:55.110Z,101244.66
2022-11-06T12:11:32.623Z,101246.91
2022-11-06T12:14:23.922Z,101243.03
2022-11-06T12:17:04.613Z,101254.06
2022-11-06T12:19:39.006Z,101259.84
2022-11-06T12:22:26.115Z,101249.81
2022-11-06T12:25:08.032Z,101254.31
2022-11-06T12:27:45.197Z,101258.78
2022-11-06T12:30:18.376Z,101261.75
2022-11-06T12:32:51.855Z,101267.78
2022-11-06T12:35:30.130Z,101273.03
2022-11-06T12:38:39.152Z,101273.94
2022-11-06T12:41:18.159Z,101278.03
2022-11-06T12:43:51.650Z,101288.22
2022-11-06T12:46:43.426Z,101294.00
2022-11-06T12:49:21.731Z,101289.97
2022-11-06T12:52:03.776Z,101290.91
2022-11-06T12:54:44.886Z,101297.56
2022-11-06T12:57:46.920Z,101306.66
2022-11-06T13:00:17.398Z,101301.34
2022-11-06T13:03:17.589Z,101308.50
2022-11-06T13:06:00.124Z,101309.53
2022-11-06T13:09:05.671Z,101320.59
2022-11-06T13:11:45.218Z,101318.53
2022-11-06T13:14:28.202Z,101315.69
2022-11-06T13:17:09.477Z,101329.91
2022-11-06T13:19:46.163Z,101327.31
2022-11-06T13:22:42.980Z,101333.97
2022-11-06T13:25:27.712Z,101338.66
2022-11-06T13:28:09.426Z,101342.88
2022-11-06T13:30:41.727Z,101342.06
2022-11-06T13:33:31.603Z,101346.38
2022-11-06T13:36:03.166Z,101350.03
2022-11-06T13:38:39.975Z,101355.47
2022-11-06T13:41:36.553Z,101355.34
2022-11-06T13:44:12.865Z,101361.06
2022-11-06T13:47:01.540Z,101364.16
2022-11-06T13:51:43.380Z,101365.56
2022-11-06T13:54:29.287Z,101358.41
2022-11-06T13:57:17.778Z,101363.31
2022-11-06T13:59:50.871Z,101370.06
2022-11-06T14:02:49.353Z,101372.72
2022-11-06T14:05:59.218Z,101373.03
2022-11-06T14:08:44.437Z,101371.81
2022-11-06T14:11:18.826Z,101373.75
2022-11-06T14:14:28.673Z,101381.22
2022-11-06T14:17:20.556Z,101376.19
2022-11-06T14:19:54.088Z,101380.50
2022-11-06T14:22:33.950Z,101378.13
2022-11-06T14:25:24.058Z,101377.00
2022-11-06T14:27:54.153Z,101380.28
2022-11-06T14:31:05.839Z,101382.44
2022-11-06T14:33:45.315Z,101377.94
2022-11-06T14:36:28.650Z,101381.63
2022-11-06T14:38:59.289Z,101375.19
2022-11-06T14:41:40.066Z,101378.88
2022-11-06T14:44:36.648Z,101383.38
2022-11-06T14:47:09.807Z,101388.56
2022-11-06T14:49:51.933Z,101383.38
2022-11-06T14:52:26.278Z,101384.91
2022-11-06T14:55:07.427Z,101386.13
2022-11-06T14:57:37.795Z,101389.59
2022-11-06T15:00:09.217Z,101390.94
2022-11-06T15:02:40.175Z,101386.84
2022-11-06T15:05:22.079Z,101386.03
2022-11-06T15:08:04.815Z,101380.22
2022-11-06T15:10:45.424Z,101382.56
2022-11-06T15:13:28.303Z,101381.53
2022-11-06T15:16:05.925Z,101382.16
2022-11-06T15:18:38.857Z,101379.09
2022-11-06T15:21:12.032Z,101382.16
2022-11-06T15:24:05.487Z,101378.28
2022-11-06T15:26:49.151Z,101380.81
2022-11-06T15:29:19.235Z,101378.88
2022-11-06T15:32:00.120Z,101383.78
2022-11-06T15:34:31.490Z,101379.69
2022-11-06T15:37:15.955Z,101379.41
2022-11-06T15:40:01.560Z,101367.84
2022-11-06T15:42:36.620Z,101376.63
2022-11-06T15:45:23.575Z,101371.13
2022-11-06T15:48:01.559Z,101366.41
2022-11-06T15:50:34.170Z,101365.59
2022-11-06T15:53:16.850Z,101377.75
2022-11-06T15:55:52.856Z,101363.34
2022-11-06T15:58:28.104Z,101366.09
2022-11-06T16:01:02.842Z,101364.94
2022-11-06T16:03:35.772Z,101363.34
2022-11-06T16:06:07.608Z,101357.31
2022-11-06T16:08:40.355Z,101366.09
2022-11-06T16:11:16.522Z,101358.13
2022-11-06T16:13:51.694Z,101365.28
2022-11-06T16:16:46.930Z,101360.06
2022-11-06T16:19:27.919Z,101352.06
2022-11-06T16:22:09.710Z,101355.69
2022-11-06T16:24:57.577Z,101348.50
2022-11-06T16:27:29.089Z,101349.59
2022-11-06T16:30:03.257Z,101357.31
2022-11-06T16:32:42.983Z,101354.84
2022-11-06T16:35:36.511Z,101352.91
2022-11-06T16:38:41.652Z,101345.75
2022-11-06T16:41:38.167Z,101349.03
2022-11-06T16:44:43.051Z,101346.28
2022-11-06T16:47:14.377Z,101339.41
2022-11-06T16:49:55.717Z,101342.44
2022-11-06T16:52:28.131Z,101347.13
2022-11-06T16:55:19.233Z,101346.31
2022-11-06T16:57:52.911Z,101343.06
2022-11-06T17:00:23.059Z,101336.22
2022-11-06T17:03:20.601Z,101338.97
2022-11-06T17:05:57.775Z,101332.63
2022-11-06T17:08:34.947Z,101328.53
2022-11-06T17:11:23.692Z,101333.75
2022-11-06T17:13:54.865Z,101323.53
2022-11-06T17:16:29.958Z,101321.56
2022-11-06T17:19:00.281Z,101319.94
2022-11-06T17:21:31.329Z,101314.41
2022-11-06T17:24:31.155Z,101318.53
2022-11-06T17:26:55.803Z,101311.38
2022-11-06T17:29:26.115Z,101307.50
2022-11-06T17:31:56.439Z,101309.53
2022-11-06T17:34:26.578Z,101309.22
2022-11-06T17:36:56.721Z,101305.34
2022-11-06T17:39:27.910Z,101304.81
2022-11-06T17:41:58.654Z,101300.13
2022-11-06T17:44:28.950Z,101294.91
2022-11-06T17:46:59.203Z,101300.41
2022-11-06T17:49:29.869Z,101291.34
2022-11-06T17:52:02.925Z,101288.34
2022-11-06T17:54:35.714Z,101282.34
2022-11-06T17:57:09.437Z,101284.78
2022-11-06T17:59:39.782Z,101287.22
2022-11-06T18:02:10.599Z,101285.91
2022-11-06T18:04:41.008Z,101290.00
2022-11-06T18:07:14.649Z,101284.78
2022-11-06T18:09:44.899Z,101281.72
2022-11-06T18:12:19.575Z,101282.53
2022-11-06T18:14:50.101Z,101278.66
2022-11-06T18:17:20.413Z,101278.66
2022-11-06T18:19:51.810Z,101271.78
2022-11-06T18:22:21.977Z,101279.25
2022-11-06T18:24:52.554Z,101273.44
2022-11-06T18:27:23.031Z,101272.91
2022-11-06T18:29:53.321Z,101272.44
2022-11-06T18:32:23.354Z,101260.56
2022-11-06T18:34:53.391Z,101263.31
2022-11-06T18:37:23.464Z,101257.78
2022-11-06T18:39:54.092Z,101257.78
2022-11-06T18:42:24.275Z,101248.72
2022-11-06T18:44:54.430Z,101243.19
2022-11-06T18:47:24.456Z,101242.06
2022-11-06T18:49:54.446Z,101237.34
2022-11-06T18:52:51.443Z,101229.41
2022-11-06T18:55:15.554Z,101222.75
2022-11-06T18:57:45.607Z,101224.06
2022-11-06T19:00:16.418Z,101216.09
2022-11-06T19:02:47.246Z,101214.47
2022-11-06T19:05:18.028Z,101211.38
2022-11-06T19:07:52.814Z,101202.31
2022-11-06T19:10:25.955Z,101207.50
2022-11-06T19:12:59.433Z,101196.47
2022-11-06T19:15:30.047Z,101201.16
2022-11-06T19:18:00.755Z,101200.03
2022-11-06T19:20:31.687Z,101197.28
2022-11-06T19:23:01.787Z,101204.75
2022-11-06T19:25:32.049Z,101194.03
2022-11-06T19:28:02.464Z,101197.06
2022-11-06T19:30:33.142Z,101208.63
2022-11-06T19:33:03.430Z,101191.28
2022-11-06T19:35:35.293Z,101197.41
2022-11-06T19:38:05.661Z,101197.41
2022-11-06T19:40:36.865Z,101196.28
2022-11-06T19:43:09.180Z,101195.44
2022-11-06T19:45:39.937Z,101195.44
2022-11-06T19:48:10.084Z,101196.56
2022-11-06T19:50:58.876Z,101189.91
2022-11-06T19:53:31.128Z,101197.41
2022-11-06T19:56:03.762Z,101196.28
2022-11-06T19:58:34.660Z,101198.19
2022-11-06T20:01:15.555Z,101194.94
2022-11-06T20:03:46.732Z,101186.38
2022-11-06T20:06:18.091Z,101189.13
2022-11-06T20:08:52.704Z,101196.06
2022-11-06T20:11:23.061Z,101183.09
2022-11-06T20:13:53.239Z,101188.09
2022-11-06T20:16:24.173Z,101184.22
2022-11-06T20:18:57.131Z,101187.28
2022-11-06T20:21:30.209Z,101186.47
2022-11-06T20:24:00.634Z,101184.03
2022-11-06T20:26:30.977Z,101176.25
2022-11-06T20:29:01.252Z,101176.25
2022-11-06T20:31:31.471Z,101179.03
2022-11-06T20:34:01.978Z,101184.81
2022-11-06T20:36:34.185Z,101185.66
2022-11-06T20:39:05.041Z,101176.25
2022-11-06T20:41:35.264Z,101191.19
2022-11-06T20:44:05.493Z,101180.13
2022-11-06T20:46:35.693Z,101172.16
2022-11-06T20:49:06.405Z,101169.41
2022-11-06T20:52:00.000Z,101173.00
2022-11-06T20:54:27.459Z,101173.00
2022-11-06T20:56:57.665Z,101172.16
2022-11-06T20:59:28.214Z,101165.84
2022-11-06T21:01:58.673Z,101170.50
2022-11-06T21:04:28.948Z,101169.72
2022-11-06T21:06:59.415Z,101169.72
2022-11-06T21:09:29.607Z,101171.34
2022-11-06T21:11:59.870Z,101176.88
2022-11-06T21:14:31.133Z,101172.47
2022-11-06T21:17:01.403Z,101175.22
2022-11-06T21:19:32.396Z,101179.13
2022-11-06T21:22:03.041Z,101183.50
2022-11-06T21:24:34.320Z,101179.91
2022-11-06T21:27:04.552Z,101179.13
2022-11-06T21:29:36.668Z,101170.00
2022-11-06T21:32:07.014Z,101169.19
2022-11-06T21:34:38.409Z,101179.72
2022-11-06T21:37:08.612Z,101180.25
2022-11-06T21:39:39.449Z,101180.56
2022-11-06T21:42:10.986Z,101185.25
2022-11-06T21:44:41.317Z,101186.38
2022-11-06T21:47:11.410Z,101184.44
2022-11-06T21:49:41.438Z,101196.28
2022-11-06T21:52:29.633Z,101190.75
2022-11-06T21:55:18.067Z,101195.47
2022-11-06T21:57:49.329Z,101191.09
2022-11-06T22:00:22.104Z,101202.94
2022-11-06T22:02:53.345Z,101196.28
2022-11-06T22:05:25.342Z,101197.13
2022-11-06T22:07:55.621Z,101205.69
2022-11-06T22:10:25.801Z,101201.81
2022-11-06T22:12:56.603Z,101199.03
2022-11-06T22:15:27.664Z,101198.53
2022-11-06T22:17:57.974Z,101206.50
2022-11-06T22:20:28.928Z,101213.97
2022-11-06T22:22:59.660Z,101216.53
2022-11-06T22:25:30.503Z,101211.00
2022-11-06T22:28:00.861Z,101221.84
2022-11-06T22:30:31.171Z,101226.72
2022-11-06T22:33:01.499Z,101229.50
2022-11-06T22:35:33.623Z,101230.84
2022-11-06T22:38:03.868Z,101232.47
2022-11-06T22:40:33.879Z,101234.72
2022-11-06T22:43:04.240Z,101242.06
2022-11-06T22:45:35.086Z,101241.88
2022-11-06T22:48:05.636Z,101245.44
2022-11-06T22:50:37.493Z,101243.78
2022-11-06T22:53:14.628Z,101245.94
2022-11-06T22:55:45.761Z,101245.16
2022-11-06T22:59:26.630Z,101253.72
2022-11-06T23:01:57.013Z,101260.47
2022-11-06T23:04:27.315Z,101259.44
2022-11-06T23:06:57.339Z,101266.06
2022-11-06T23:09:28.737Z,101272.81
2022-11-06T23:12:07.419Z,101273.94
2022-11-06T23:14:37.842Z,101285.78
2022-11-06T23:17:07.859Z,101281.91
2022-11-06T23:19:38.093Z,101287.72
2022-11-06T23:22:26.569Z,101291.31
2022-11-06T23:24:58.241Z,101294.59
2022-11-06T23:27:31.984Z,101297.34
2022-11-06T23:30:03.363Z,101298.34
2022-11-06T23:32:34.191Z,101306.34
2022-11-06T23:35:05.028Z,101312.97
2022-11-06T23:37:35.318Z,101312.47
2022-11-06T23:40:06.650Z,101315.22
2022-11-06T23:42:36.478Z,101321.56
2022-11-06T23:45:26.948Z,101328.41
2022-11-06T23:47:57.359Z,101326.25
2022-11-06T23:50:29.945Z,101326.25
2022-11-06T23:53:00.262Z,101327.28
2022-11-06T23:55:30.269Z,101336.97
2022-11-06T23:58:00.259Z,101343.31
